createdAt,value
2022-12-28T00:02:13.554Z,1.43
2022-12-28T00:05:16.240Z,1.50
2022-12-28T00:08:18.172Z,1.57
2022-12-28T00:11:25.524Z,1.23
2022-12-28T00:14:30.281Z,0.47
2022-12-28T00:17:32.296Z,0.77
2022-12-28T00:20:37.985Z,0.87
2022-12-28T00:23:40.004Z,0.60
2022-12-28T00:26:41.947Z,0.40
2022-12-28T00:29:44.113Z,3.73
2022-12-28T00:32:46.447Z,0.90
2022-12-28T00:35:57.130Z,0.70
2022-12-28T00:38:59.621Z,3.57
2022-12-28T00:42:01.610Z,0.90
2022-12-28T00:45:05.704Z,0.50
2022-12-28T00:48:07.726Z,1.17
2022-12-28T00:51:15.146Z,0.60
2022-12-28T00:54:17.050Z,1.60
2022-12-28T00:57:18.917Z,0.40
2022-12-28T01:00:20.909Z,0.70
2022-12-28T01:03:22.897Z,0.67
2022-12-28T01:06:26.073Z,0.67
2022-12-28T01:09:27.977Z,0.47
2022-12-28T01:12:34.624Z,2.03
2022-12-28T01:15:39.806Z,0.73
2022-12-28T01:18:42.333Z,1.93
2022-12-28T01:21:48.562Z,3.03
2022-12-28T01:24:50.444Z,0.53
2022-12-28T01:27:52.341Z,0.60
2022-12-28T01:30:54.463Z,2.40
2022-12-28T01:33:56.527Z,0.97
2022-12-28T01:36:58.425Z,1.80
2022-12-28T01:40:00.477Z,1.27
2022-12-28T01:43:02.462Z,0.73
2022-12-28T01:46:04.349Z,0.50
2022-12-28T01:49:18.921Z,0.77
2022-12-28T01:52:26.171Z,0.40
2022-12-28T01:55:30.872Z,0.30
2022-12-28T01:58:34.395Z,0.30
2022-12-28T02:01:36.743Z,0.40
2022-12-28T02:04:38.782Z,1.20
2022-12-28T02:07:47.432Z,0.50
2022-12-28T02:10:50.345Z,0.77
2022-12-28T02:13:53.445Z,0.40
2022-12-28T02:16:55.593Z,0.60
2022-12-28T02:19:58.191Z,0.70
2022-12-28T02:23:21.531Z,0.47
2022-12-28T02:26:48.077Z,0.53
2022-12-28T02:30:01.817Z,2.30
2022-12-28T02:33:24.735Z,1.37
2022-12-28T02:36:33.917Z,1.17
2022-12-28T02:40:11.937Z,1.90
2022-12-28T02:43:14.809Z,0.40
2022-12-28T02:46:54.867Z,0.70
2022-12-28T02:50:09.062Z,1.33
2022-12-28T02:53:29.989Z,0.63
2022-12-28T02:56:56.533Z,0.60
2022-12-28T03:00:10.487Z,1.63
2022-12-28T03:03:44.419Z,1.37
2022-12-28T03:07:25.532Z,0.50
2022-12-28T03:10:38.090Z,0.63
2022-12-28T03:14:21.799Z,0.63
2022-12-28T03:17:48.842Z,0.50
2022-12-28T03:21:12.154Z,1.13
2022-12-28T03:24:34.449Z,1.23
2022-12-28T03:27:56.601Z,2.43
2022-12-28T03:31:06.962Z,0.50
2022-12-28T03:34:09.618Z,0.40
2022-12-28T03:37:41.958Z,0.87
2022-12-28T03:40:50.578Z,0.70
2022-12-28T03:43:56.679Z,0.40
2022-12-28T03:47:08.637Z,0.33
2022-12-28T03:50:12.105Z,0.93
2022-12-28T03:53:14.767Z,0.60
2022-12-28T03:56:22.503Z,2.00
2022-12-28T03:59:25.219Z,1.30
2022-12-28T04:02:27.319Z,0.57
2022-12-28T04:05:29.473Z,0.80
2022-12-28T04:08:32.645Z,0.93
2022-12-28T04:11:35.098Z,0.80
2022-12-28T04:14:36.956Z,0.70
2022-12-28T04:17:38.866Z,0.73
2022-12-28T04:20:40.877Z,1.50
2022-12-28T04:23:43.498Z,0.60
2022-12-28T04:26:45.479Z,0.40
2022-12-28T04:29:47.792Z,0.70
2022-12-28T04:32:49.776Z,0.40
2022-12-28T04:35:52.495Z,1.80
2022-12-28T04:38:54.662Z,0.73
2022-12-28T04:41:56.681Z,0.90
2022-12-28T04:44:58.598Z,1.33
2022-12-28T04:48:00.865Z,1.13
2022-12-28T04:51:11.341Z,0.53
2022-12-28T04:54:14.865Z,3.50
2022-12-28T04:57:16.795Z,3.20
2022-12-28T05:00:19.317Z,0.70
2022-12-28T05:03:21.212Z,0.70
2022-12-28T05:06:24.549Z,0.50
2022-12-28T05:09:26.473Z,1.33
2022-12-28T05:12:28.454Z,0.40
2022-12-28T05:15:30.300Z,2.13
2022-12-28T05:18:32.252Z,0.97
2022-12-28T05:21:34.865Z,1.70
2022-12-28T05:24:36.861Z,2.13
2022-12-28T05:27:38.780Z,0.70
2022-12-28T05:30:40.967Z,0.60
2022-12-28T05:33:43.866Z,2.00
2022-12-28T05:36:45.878Z,1.53
2022-12-28T05:39:47.770Z,0.67
2022-12-28T05:42:51.797Z,2.63
2022-12-28T05:45:53.825Z,0.60
2022-12-28T05:48:56.001Z,1.30
2022-12-28T05:51:57.917Z,1.07
2022-12-28T05:55:00.550Z,1.03
2022-12-28T05:58:02.367Z,1.10
2022-12-28T06:01:11.174Z,0.77
2022-12-28T06:04:19.794Z,0.60
2022-12-28T06:07:22.489Z,0.43
2022-12-28T06:10:24.462Z,1.73
2022-12-28T06:13:26.534Z,0.60
2022-12-28T06:16:30.984Z,0.60
2022-12-28T06:19:33.518Z,0.70
2022-12-28T06:22:36.358Z,0.60
2022-12-28T06:25:38.818Z,1.07
2022-12-28T06:28:41.640Z,0.90
2022-12-28T06:31:51.557Z,2.03
2022-12-28T06:34:53.562Z,1.13
2022-12-28T06:37:55.907Z,4.17
2022-12-28T06:41:14.119Z,0.50
2022-12-28T06:44:16.986Z,1.17
2022-12-28T06:47:19.007Z,0.87
2022-12-28T06:50:20.876Z,0.57
2022-12-28T06:53:23.585Z,0.73
2022-12-28T06:56:28.643Z,0.80
2022-12-28T06:59:30.547Z,0.90
2022-12-28T07:02:32.549Z,0.83
2022-12-28T07:05:34.650Z,0.83
2022-12-28T07:08:37.094Z,2.63
2022-12-28T07:11:39.539Z,1.13
2022-12-28T07:14:41.441Z,2.10
2022-12-28T07:17:43.292Z,1.10
2022-12-28T07:20:45.238Z,1.50
2022-12-28T07:23:48.544Z,0.97
2022-12-28T07:26:50.645Z,1.57
2022-12-28T07:29:52.547Z,3.17
2022-12-28T07:32:54.801Z,2.87
2022-12-28T07:35:58.975Z,0.63
2022-12-28T07:39:01.220Z,0.80
2022-12-28T07:42:06.942Z,1.03
2022-12-28T07:45:13.024Z,1.67
2022-12-28T07:48:15.514Z,0.87
2022-12-28T07:51:18.735Z,0.60
2022-12-28T07:54:20.595Z,2.27
2022-12-28T07:57:22.505Z,0.77
2022-12-28T08:00:24.417Z,3.70
2022-12-28T08:03:26.324Z,1.00
2022-12-28T08:06:29.516Z,1.17
2022-12-28T08:09:32.435Z,0.60
2022-12-28T08:12:34.325Z,0.90
2022-12-28T08:15:37.400Z,1.00
2022-12-28T08:18:40.672Z,1.63
2022-12-28T08:21:45.307Z,1.17
2022-12-28T08:24:47.091Z,1.00
2022-12-28T08:27:48.994Z,1.10
2022-12-28T08:30:51.024Z,2.20
2022-12-28T08:33:54.512Z,0.70
2022-12-28T08:36:56.534Z,0.80
2022-12-28T08:39:58.548Z,0.83
2022-12-28T08:43:00.514Z,1.00
2022-12-28T08:46:07.763Z,0.97
2022-12-28T08:49:10.153Z,0.93
2022-12-28T08:52:12.178Z,0.83
2022-12-28T08:55:14.180Z,2.30
2022-12-28T08:58:16.281Z,0.93
2022-12-28T09:01:20.164Z,0.90
2022-12-28T09:04:22.620Z,1.57
2022-12-28T09:07:24.650Z,2.97
2022-12-28T09:10:27.300Z,1.33
2022-12-28T09:13:29.366Z,1.03
2022-12-28T09:16:32.452Z,26.40
2022-12-28T09:19:34.398Z,18.93
2022-12-28T09:22:36.680Z,4.53
2022-12-28T09:25:38.441Z,12.70
2022-12-28T09:28:44.415Z,3.60
2022-12-28T09:31:46.416Z,2.00
2022-12-28T09:34:48.299Z,1.47
2022-12-28T09:37:50.105Z,1.20
2022-12-28T09:40:52.689Z,2.13
2022-12-28T09:44:02.494Z,3.20
2022-12-28T09:47:29.001Z,3.63
2022-12-28T09:50:35.777Z,4.00
2022-12-28T09:53:38.142Z,16.23
2022-12-28T09:56:41.953Z,20.90
2022-12-28T09:59:44.702Z,20.53
2022-12-28T10:02:57.416Z,3.47
2022-12-28T10:05:59.948Z,1.00
2022-12-28T10:09:04.202Z,3.30
2022-12-28T10:12:23.024Z,1.03
2022-12-28T10:15:27.873Z,1.97
2022-12-28T10:18:33.354Z,3.63
2022-12-28T10:21:38.061Z,21.87
2022-12-28T10:24:41.061Z,4.50
2022-12-28T10:27:44.512Z,11.40
2022-12-28T10:30:48.782Z,2.07
2022-12-28T10:33:52.670Z,2.70
2022-12-28T10:36:55.710Z,1.97
2022-12-28T10:40:04.128Z,1.97
2022-12-28T10:43:10.793Z,5.13
2022-12-28T10:46:18.665Z,7.67
2022-12-28T10:49:22.485Z,1.13
2022-12-28T10:52:25.442Z,1.47
2022-12-28T10:55:33.559Z,1.63
2022-12-28T10:58:35.749Z,1.40
2022-12-28T11:01:38.269Z,1.83
2022-12-28T11:04:53.951Z,1.10
2022-12-28T11:08:06.459Z,2.57
2022-12-28T11:11:18.480Z,1.60
2022-12-28T11:14:34.511Z,2.83
2022-12-28T11:17:38.165Z,1.00
2022-12-28T11:20:46.655Z,1.73
2022-12-28T11:23:50.116Z,1.97
2022-12-28T11:26:52.135Z,1.20
2022-12-28T11:29:55.484Z,1.10
2022-12-28T11:33:02.402Z,1.57
2022-12-28T11:36:09.883Z,0.83
2022-12-28T11:39:27.381Z,1.17
2022-12-28T11:42:41.111Z,3.47
2022-12-28T11:45:56.003Z,1.10
2022-12-28T11:49:02.340Z,1.57
2022-12-28T11:52:24.179Z,0.90
2022-12-28T11:55:27.278Z,1.13
2022-12-28T11:58:29.098Z,1.30
2022-12-28T12:01:31.133Z,0.80
2022-12-28T12:04:39.244Z,1.13
2022-12-28T12:07:48.762Z,2.10
2022-12-28T12:11:29.672Z,1.10
2022-12-28T12:14:41.326Z,1.90
2022-12-28T12:17:47.429Z,1.30
2022-12-28T12:21:15.052Z,2.20
2022-12-28T12:24:30.262Z,3.00
2022-12-28T12:27:43.389Z,2.23
2022-12-28T12:30:46.535Z,2.03
2022-12-28T12:33:49.430Z,1.10
2022-12-28T12:37:14.510Z,3.73
2022-12-28T12:40:44.733Z,2.93
2022-12-28T12:43:54.495Z,2.30
2022-12-28T12:47:15.266Z,1.00
2022-12-28T12:50:32.162Z,1.83
2022-12-28T12:53:48.705Z,1.47
2022-12-28T12:56:56.035Z,1.90
2022-12-28T13:00:15.377Z,4.67
2022-12-28T13:03:28.696Z,2.07
2022-12-28T13:06:31.461Z,1.07
2022-12-28T13:09:34.764Z,6.10
2022-12-28T13:12:36.738Z,2.73
2022-12-28T13:15:38.953Z,2.30
2022-12-28T13:18:45.482Z,2.10
2022-12-28T13:21:51.527Z,1.33
2022-12-28T13:24:54.059Z,1.90
2022-12-28T13:27:57.530Z,1.27
2022-12-28T13:31:14.225Z,0.80
2022-12-28T13:34:25.223Z,2.00
2022-12-28T13:37:27.236Z,0.87
2022-12-28T13:40:30.910Z,1.70
2022-12-28T13:44:14.411Z,1.67
2022-12-28T13:47:22.947Z,1.53
2022-12-28T13:50:28.875Z,1.00
2022-12-28T13:53:31.606Z,1.80
2022-12-28T13:56:33.761Z,1.90
2022-12-28T13:59:36.565Z,6.23
2022-12-28T14:02:41.746Z,3.00
2022-12-28T14:05:45.640Z,2.90
2022-12-28T14:08:47.986Z,3.53
2022-12-28T14:11:50.613Z,3.47
2022-12-28T14:14:53.318Z,1.10
2022-12-28T14:17:55.200Z,0.50
2022-12-28T14:20:58.576Z,0.53
2022-12-28T14:24:06.332Z,0.50
2022-12-28T14:27:08.815Z,2.23
2022-12-28T14:30:27.428Z,0.60
2022-12-28T14:33:33.829Z,0.73
2022-12-28T14:36:43.741Z,1.07
2022-12-28T14:39:45.961Z,0.97
2022-12-28T14:42:51.815Z,1.97
2022-12-28T14:46:06.964Z,1.50
2022-12-28T14:49:28.614Z,3.53
2022-12-28T14:52:36.309Z,2.20
2022-12-28T14:55:53.553Z,1.03
2022-12-28T14:58:59.546Z,4.43
2022-12-28T15:02:02.134Z,1.10
2022-12-28T15:05:04.416Z,1.13
2022-12-28T15:08:07.329Z,1.20
2022-12-28T15:11:09.771Z,0.67
2022-12-28T15:14:12.024Z,0.90
2022-12-28T15:17:15.887Z,3.00
2022-12-28T15:20:19.109Z,0.40
2022-12-28T15:23:21.365Z,1.47
2022-12-28T15:26:24.648Z,1.43
2022-12-28T15:29:55.712Z,0.90
2022-12-28T15:32:49.497Z,1.60
2022-12-28T15:35:51.558Z,0.40
2022-12-28T15:38:56.840Z,1.77
2022-12-28T15:41:58.807Z,0.20
2022-12-28T15:45:01.732Z,1.30
2022-12-28T15:48:03.952Z,2.73
2022-12-28T15:51:06.291Z,9.60
2022-12-28T15:54:08.457Z,18.93
2022-12-28T15:57:14.571Z,16.97
2022-12-28T16:00:21.011Z,22.07
2022-12-28T16:03:23.637Z,24.87
2022-12-28T16:06:27.568Z,9.33
2022-12-28T16:09:29.510Z,7.93
2022-12-28T16:12:31.528Z,5.77
2022-12-28T16:15:34.181Z,7.87
2022-12-28T16:18:36.130Z,2.03
2022-12-28T16:21:40.009Z,2.10
2022-12-28T16:24:42.153Z,2.40
2022-12-28T16:27:44.136Z,3.03
2022-12-28T16:30:49.855Z,1.93
2022-12-28T16:33:56.791Z,1.67
2022-12-28T16:36:59.784Z,1.53
2022-12-28T16:40:01.891Z,1.40
2022-12-28T16:43:07.409Z,1.10
2022-12-28T16:46:10.013Z,0.67
2022-12-28T16:49:12.453Z,1.10
2022-12-28T16:52:15.163Z,0.60
2022-12-28T16:55:16.994Z,0.73
2022-12-28T16:58:19.337Z,2.00
2022-12-28T17:01:21.471Z,1.17
2022-12-28T17:04:23.671Z,5.37
2022-12-28T17:07:25.652Z,1.33
2022-12-28T17:10:27.710Z,3.17
2022-12-28T17:13:29.836Z,1.17
2022-12-28T17:16:32.257Z,1.17
2022-12-28T17:19:35.690Z,0.70
2022-12-28T17:22:37.660Z,1.30
2022-12-28T17:25:39.591Z,2.00
2022-12-28T17:28:41.533Z,2.50
2022-12-28T17:31:43.465Z,2.43
2022-12-28T17:34:46.120Z,2.40
2022-12-28T17:37:48.111Z,3.40
2022-12-28T17:40:50.637Z,8.03
2022-12-28T17:43:54.560Z,1.47
2022-12-28T17:46:56.557Z,1.83
2022-12-28T17:49:59.608Z,1.73
2022-12-28T17:53:01.984Z,45.33
2022-12-28T17:56:05.869Z,42.00
2022-12-28T17:59:19.633Z,22.97
2022-12-28T18:02:23.420Z,14.30
2022-12-28T18:05:27.112Z,6.20
2022-12-28T18:08:29.865Z,3.23
2022-12-28T18:11:38.084Z,2.67
2022-12-28T18:14:41.295Z,1.67
2022-12-28T18:17:43.486Z,3.10
2022-12-28T18:20:45.764Z,3.33
2022-12-28T18:23:48.355Z,4.30
2022-12-28T18:26:50.278Z,2.57
2022-12-28T18:29:52.245Z,2.10
2022-12-28T18:32:54.312Z,1.73
2022-12-28T18:35:56.252Z,2.20
2022-12-28T18:38:58.209Z,2.50
2022-12-28T18:42:01.292Z,3.43
2022-12-28T18:45:03.204Z,2.50
2022-12-28T18:48:05.624Z,2.73
2022-12-28T18:51:09.857Z,2.50
2022-12-28T18:54:11.715Z,2.47
2022-12-28T18:57:13.709Z,2.73
2022-12-28T19:00:16.614Z,1.03
2022-12-28T19:03:18.695Z,1.97
2022-12-28T19:06:20.814Z,4.50
2022-12-28T19:09:23.348Z,2.07
2022-12-28T19:12:25.634Z,1.17
2022-12-28T19:15:27.582Z,1.97
2022-12-28T19:18:29.576Z,3.53
2022-12-28T19:21:39.582Z,1.10
2022-12-28T19:24:41.400Z,1.20
2022-12-28T19:27:44.656Z,1.43
2022-12-28T19:30:46.529Z,0.50
2022-12-28T19:33:48.611Z,1.27
2022-12-28T19:36:50.532Z,1.17
2022-12-28T19:39:57.614Z,1.37
2022-12-28T19:43:00.262Z,2.50
2022-12-28T19:46:07.677Z,4.70
2022-12-28T19:49:10.040Z,5.57
2022-12-28T19:52:12.354Z,2.23
2022-12-28T19:55:14.241Z,1.27
2022-12-28T19:58:16.558Z,1.43
2022-12-28T20:01:25.648Z,2.50
2022-12-28T20:04:28.226Z,3.13
2022-12-28T20:07:31.544Z,1.23
2022-12-28T20:10:33.846Z,1.30
2022-12-28T20:13:36.014Z,3.90
2022-12-28T20:16:39.890Z,7.23
2022-12-28T20:19:44.691Z,11.67
2022-12-28T20:22:49.935Z,6.53
2022-12-28T20:25:53.485Z,4.53
2022-12-28T20:28:58.603Z,4.27
2022-12-28T20:32:00.496Z,2.97
2022-12-28T20:35:02.931Z,7.67
2022-12-28T20:38:04.730Z,6.80
2022-12-28T20:41:37.155Z,4.50
2022-12-28T20:44:40.088Z,4.23
2022-12-28T20:47:43.112Z,2.17
2022-12-28T20:50:48.509Z,2.30
2022-12-28T20:53:51.584Z,2.50
2022-12-28T20:56:55.847Z,2.10
2022-12-28T20:59:59.497Z,1.67
2022-12-28T21:03:02.797Z,2.23
2022-12-28T21:06:07.596Z,1.70
2022-12-28T21:09:10.562Z,1.13
2022-12-28T21:12:14.209Z,1.40
2022-12-28T21:15:18.015Z,2.50
2022-12-28T21:18:20.960Z,1.83
2022-12-28T21:21:23.976Z,1.10
2022-12-28T21:24:26.235Z,1.37
2022-12-28T21:27:29.569Z,1.80
2022-12-28T21:30:33.264Z,1.20
2022-12-28T21:33:36.927Z,1.87
2022-12-28T21:36:39.230Z,0.67
2022-12-28T21:39:41.305Z,0.97
2022-12-28T21:42:43.438Z,0.67
2022-12-28T21:45:46.821Z,5.73
2022-12-28T21:48:49.252Z,1.40
2022-12-28T21:51:51.741Z,0.73
2022-12-28T21:54:53.965Z,0.90
2022-12-28T21:57:56.049Z,1.40
2022-12-28T22:01:34.026Z,1.03
2022-12-28T22:05:01.766Z,1.67
2022-12-28T22:08:24.247Z,1.53
2022-12-28T22:11:44.849Z,3.37
2022-12-28T22:14:46.834Z,0.80
2022-12-28T22:17:49.803Z,0.47
2022-12-28T22:20:51.821Z,1.03
2022-12-28T22:23:54.677Z,0.90
2022-12-28T22:26:56.559Z,1.17
2022-12-28T22:29:59.095Z,2.57
2022-12-28T22:33:01.234Z,1.60
2022-12-28T22:36:17.399Z,1.70
2022-12-28T22:39:19.344Z,1.20
2022-12-28T22:42:21.472Z,3.47
2022-12-28T22:45:24.125Z,0.80
2022-12-28T22:48:26.779Z,1.00
2022-12-28T22:51:28.767Z,1.73
2022-12-28T22:54:50.658Z,1.13
2022-12-28T22:57:53.540Z,2.20
2022-12-28T23:01:14.214Z,1.93
2022-12-28T23:04:16.451Z,1.07
2022-12-28T23:07:27.944Z,1.33
2022-12-28T23:10:30.895Z,0.70
2022-12-28T23:13:33.847Z,2.30
2022-12-28T23:16:35.807Z,0.37
2022-12-28T23:19:56.854Z,0.67
2022-12-28T23:23:17.495Z,0.50
2022-12-28T23:26:38.922Z,0.30
2022-12-28T23:29:40.853Z,0.83
2022-12-28T23:32:43.139Z,0.67
2022-12-28T23:35:45.501Z,0.73
2022-12-28T23:38:47.571Z,0.83
2022-12-28T23:41:52.982Z,1.30
2022-12-28T23:44:54.876Z,2.33
2022-12-28T23:47:56.747Z,1.23
2022-12-28T23:51:08.657Z,1.07
2022-12-28T23:54:12.356Z,3.43
2022-12-28T23:57:14.371Z,2.00
